Time;durP1;ratioP1;P1;durP2;ratioP2;P2;SDS_P1;SDS_P2;PMS_P1;PMS_P2;Temp;Humidity;BMP_temperature;BMP_pressure;BME280_temperature;BME280_humidity;BME280_pressure;Samples;Min_cycle;Max_cycle;Signal;HPM_P1;HPM_P2
2022/03/22 00:00:14;;;;;;;11.47;10.13;;;7.90;29.10;;;;;;6248692;22;20197;-85
2022/03/22 00:02:40;;;;;;;14.10;11.10;;;7.90;29.10;;;;;;6248448;22;20389;-85
2022/03/22 00:05:06;;;;;;;12.33;11.07;;;7.80;29.70;;;;;;6249056;22;20161;-85
2022/03/22 00:07:32;;;;;;;17.07;15.47;;;7.80;30.00;;;;;;6248679;22;20389;-85
2022/03/22 00:10:04;;;;;;;14.00;9.50;;;7.80;30.00;;;;;;6248186;22;20900;-85
2022/03/22 00:12:35;;;;;;;13.03;10.13;;;7.80;30.10;;;;;;6248589;22;20955;-85
2022/03/22 00:15:02;;;;;;;10.20;9.20;;;7.60;29.90;;;;;;6248661;22;20437;-85
2022/03/22 00:17:28;;;;;;;9.93;8.97;;;7.60;30.40;;;;;;6247874;22;20424;-85
2022/03/22 00:20:03;;;;;;;12.43;10.57;;;7.60;30.50;;;;;;6248335;22;20443;-85
2022/03/22 00:22:32;;;;;;;17.00;10.43;;;7.50;30.40;;;;;;6247353;22;20399;-85
2022/03/22 00:25:00;;;;;;;14.20;11.63;;;7.60;30.50;;;;;;6274879;22;20385;-85
2022/03/22 00:27:26;;;;;;;14.77;13.43;;;7.60;30.50;;;;;;6247659;22;20417;-85
2022/03/22 00:29:52;;;;;;;16.63;15.10;;;7.60;30.20;;;;;;6246915;22;20393;-85
2022/03/22 00:32:18;;;;;;;13.57;12.17;;;7.60;30.20;;;;;;6247711;22;20212;-85
2022/03/22 00:34:44;;;;;;;16.27;14.57;;;7.60;30.10;;;;;;6247161;22;20575;-85
2022/03/22 00:37:14;;;;;;;15.67;11.27;;;7.50;30.40;;;;;;6246897;22;20432;-86
2022/03/22 00:39:41;;;;;;;14.40;13.20;;;7.50;30.40;;;;;;6247497;22;20234;-85
2022/03/22 00:42:07;;;;;;;14.23;12.80;;;7.50;31.10;;;;;;6246723;22;20397;-86
2022/03/22 00:44:35;;;;;;;14.07;12.67;;;7.50;30.40;;;;;;6246530;22;20722;-86
2022/03/22 00:47:04;;;;;;;17.10;15.40;;;7.50;29.90;;;;;;6246371;22;20870;-86
2022/03/22 00:49:32;;;;;;;18.07;16.30;;;7.50;30.40;;;;;;6246797;22;20895;-86
2022/03/22 00:52:01;;;;;;;15.57;13.60;;;7.40;29.90;;;;;;6246410;22;20732;-86
2022/03/22 00:54:30;;;;;;;15.40;13.90;;;7.40;29.80;;;;;;6247325;22;20389;-86
2022/03/22 00:56:56;;;;;;;16.43;14.40;;;7.40;29.10;;;;;;6246333;22;20687;-86
2022/03/22 01:02:06;;;;;;;16.53;15.03;;;7.30;28.90;;;;;;6273621;22;20149;-86
2022/03/22 01:04:31;;;;;;;10.77;8.50;;;7.20;28.80;;;;;;6246503;22;20767;-85
2022/03/22 01:06:57;;;;;;;10.73;9.70;;;7.20;29.60;;;;;;6246935;22;20566;-86
2022/03/22 01:09:38;;;;;;;14.40;13.10;;;7.20;30.10;;;;;;6248879;22;20180;-86
2022/03/22 01:12:04;;;;;;;18.83;17.00;;;7.20;30.10;;;;;;6264918;22;20167;-85
2022/03/22 01:14:29;;;;;;;15.37;10.37;;;7.20;30.30;;;;;;6246422;22;20432;-85
2022/03/22 01:17:01;;;;;;;15.97;14.47;;;7.10;31.70;;;;;;6246946;22;20779;-85
2022/03/22 01:19:27;;;;;;;15.93;13.77;;;7.10;31.40;;;;;;6273906;22;20350;-85
2022/03/22 01:21:54;;;;;;;14.63;13.23;;;7.10;31.00;;;;;;6246009;22;20385;-85
2022/03/22 01:24:20;;;;;;;17.17;15.53;;;7.10;31.40;;;;;;6245847;22;20467;-85
2022/03/22 01:26:46;;;;;;;15.53;13.90;;;7.10;31.40;;;;;;6245798;22;20389;-85
2022/03/22 01:29:12;;;;;;;17.70;16.00;;;7.10;30.90;;;;;;6245850;22;20162;-86
2022/03/22 01:31:38;;;;;;;16.47;14.60;;;7.10;30.70;;;;;;6245278;22;20216;-86
2022/03/22 01:34:04;;;;;;;17.03;14.23;;;7.00;30.40;;;;;;6243919;22;20382;-85
2022/03/22 01:36:31;;;;;;;14.63;13.30;;;7.00;30.50;;;;;;6246313;22;20428;-85
2022/03/22 01:38:57;;;;;;;14.50;13.20;;;7.00;30.00;;;;;;6245803;22;20417;-85
2022/03/22 01:41:24;;;;;;;17.10;15.43;;;7.00;30.10;;;;;;6246214;22;20775;-85
2022/03/22 01:43:50;;;;;;;14.70;13.23;;;7.00;30.00;;;;;;6245107;22;20417;-85
2022/03/22 01:46:20;;;;;;;17.63;15.83;;;6.90;30.20;;;;;;6246090;22;20446;-85
2022/03/22 01:48:47;;;;;;;15.13;13.67;;;6.80;30.30;;;;;;6246498;22;20831;-85
2022/03/22 01:51:13;;;;;;;14.67;13.40;;;6.80;29.90;;;;;;6245687;22;20396;-85
2022/03/22 01:53:40;;;;;;;16.53;15.10;;;6.80;30.00;;;;;;6244661;22;20420;-86
2022/03/22 01:56:11;;;;;;;16.03;14.47;;;6.70;29.70;;;;;;6245196;22;20389;-85
2022/03/22 01:58:40;;;;;;;15.83;14.43;;;6.60;29.70;;;;;;6245882;22;20875;-85
2022/03/22 02:06:36;;;;;;;17.00;15.30;;;6.70;29.90;;;;;;6272283;22;20418;-85
2022/03/22 02:09:03;;;;;;;15.93;14.43;;;6.40;29.70;;;;;;6245664;22;20435;-85
2022/03/22 02:11:28;;;;;;;16.07;14.47;;;6.50;29.70;;;;;;6245821;22;20493;-86
2022/03/22 02:13:55;;;;;;;17.23;15.43;;;6.40;29.70;;;;;;6272371;22;20780;-85
2022/03/22 02:16:22;;;;;;;16.20;14.60;;;6.50;30.20;;;;;;6245087;22;20197;-85
2022/03/22 02:18:49;;;;;;;18.93;17.10;;;6.30;30.00;;;;;;6245461;22;20798;-85
2022/03/22 02:21:15;;;;;;;17.50;15.80;;;6.20;31.40;;;;;;6245540;22;20392;-85
2022/03/22 02:23:52;;;;;;;18.63;16.70;;;6.20;32.50;;;;;;6244907;22;20381;-85
2022/03/22 02:26:19;;;;;;;17.60;16.00;;;6.20;33.20;;;;;;6246117;22;20384;-85
2022/03/22 02:28:45;;;;;;;18.60;16.83;;;6.20;32.60;;;;;;6247465;22;20382;-85
2022/03/22 02:31:13;;;;;;;16.47;15.03;;;6.40;33.30;;;;;;6247272;22;20431;-85
2022/03/22 02:33:42;;;;;;;18.73;16.93;;;6.20;31.80;;;;;;6247018;22;20877;-85
2022/03/22 02:36:09;;;;;;;17.90;16.30;;;6.20;32.10;;;;;;6247228;22;20472;-85
2022/03/22 02:38:35;;;;;;;19.30;17.50;;;6.40;33.00;;;;;;6247438;22;20373;-85
2022/03/22 02:41:01;;;;;;;19.43;17.63;;;6.40;33.70;;;;;;6246835;22;20393;-85
2022/03/22 02:43:27;;;;;;;21.90;17.13;;;6.30;34.50;;;;;;6246665;22;20185;-85
2022/03/22 02:45:54;;;;;;;19.03;17.33;;;6.20;34.00;;;;;;6246682;22;20459;-85
2022/03/22 02:48:20;;;;;;;20.20;18.00;;;6.30;34.70;;;;;;6246110;22;20419;-85
2022/03/22 02:50:46;;;;;;;18.83;17.23;;;6.20;35.70;;;;;;6247140;22;20714;-85
2022/03/22 02:53:11;;;;;;;18.77;17.17;;;6.20;35.60;;;;;;6247384;22;20174;-85
2022/03/22 02:55:37;;;;;;;18.70;17.03;;;6.30;35.10;;;;;;6246154;22;20423;-85
2022/03/22 02:58:03;;;;;;;18.60;16.90;;;6.20;35.00;;;;;;6246583;22;20186;-85
2022/03/22 03:00:29;;;;;;;19.27;17.50;;;6.30;35.90;;;;;;6246125;22;20186;-85
2022/03/22 03:02:55;;;;;;;18.50;16.60;;;6.30;35.20;;;;;;6246669;22;20420;-85
2022/03/22 03:05:22;;;;;;;16.90;15.40;;;6.30;34.50;;;;;;6246293;22;20150;-85
2022/03/22 03:07:49;;;;;;;18.17;16.57;;;6.20;34.40;;;;;;6247101;22;20163;-85
2022/03/22 03:10:15;;;;;;;19.00;17.40;;;6.10;35.10;;;;;;6246580;22;20415;-85
2022/03/22 03:12:44;;;;;;;19.60;17.70;;;6.10;35.10;;;;;;6246803;22;20381;-85
2022/03/22 03:15:11;;;;;;;19.90;16.13;;;6.10;35.50;;;;;;6245694;22;20405;-85
2022/03/22 03:17:38;;;;;;;20.97;18.87;;;6.10;35.70;;;;;;6273112;22;20870;-85
2022/03/22 03:20:13;;;;;;;20.03;16.70;;;6.10;35.00;;;;;;6246769;22;20474;-85
2022/03/22 03:22:39;;;;;;;18.03;16.37;;;6.00;35.20;;;;;;6246321;22;20434;-85
2022/03/22 03:25:06;;;;;;;20.80;18.37;;;5.90;34.80;;;;;;6246837;22;20858;-85
2022/03/22 03:27:32;;;;;;;19.83;17.97;;;5.90;35.10;;;;;;6246437;22;20159;-85
2022/03/22 03:29:58;;;;;;;16.27;14.73;;;5.90;35.50;;;;;;6243652;22;20752;-85
2022/03/22 03:32:24;;;;;;;16.27;14.80;;;5.90;35.20;;;;;;6246832;22;20484;-85
2022/03/22 03:34:50;;;;;;;20.30;18.50;;;5.80;34.30;;;;;;6246134;22;20169;-85
2022/03/22 03:37:16;;;;;;;18.90;17.00;;;5.80;34.20;;;;;;6245414;22;20193;-85
2022/03/22 03:39:45;;;;;;;18.17;16.57;;;5.80;35.00;;;;;;6246730;22;20200;-85
2022/03/22 03:42:11;;;;;;;19.73;17.80;;;5.80;33.20;;;;;;6245720;22;20413;-86
2022/03/22 03:47:25;;;;;;;17.53;15.97;;;5.70;34.60;;;;;;6273096;22;20153;-85
2022/03/22 03:50:01;;;;;;;18.53;16.83;;;5.70;34.80;;;;;;6246412;22;20390;-84
2022/03/22 03:52:29;;;;;;;18.23;16.47;;;5.70;34.30;;;;;;6273444;22;20365;-85
2022/03/22 03:54:56;;;;;;;18.83;16.93;;;5.80;34.10;;;;;;6247223;22;20390;-85
2022/03/22 03:57:22;;;;;;;18.63;16.77;;;5.80;34.80;;;;;;6245867;22;20425;-85
2022/03/22 03:59:49;;;;;;;19.57;17.73;;;5.80;35.10;;;;;;6246373;22;20714;-85
2022/03/22 04:02:16;;;;;;;20.87;18.77;;;5.90;34.80;;;;;;6246314;22;20392;-85
2022/03/22 04:04:43;;;;;;;19.80;17.90;;;5.80;35.50;;;;;;6246329;22;20382;-85
2022/03/22 04:07:11;;;;;;;23.27;20.13;;;5.80;35.30;;;;;;6246431;22;20766;-84
2022/03/22 04:09:38;;;;;;;19.97;18.33;;;5.80;35.70;;;;;;6246046;22;20884;-85
2022/03/22 04:12:05;;;;;;;19.87;18.10;;;5.90;35.10;;;;;;6246227;22;20421;-85
2022/03/22 04:14:31;;;;;;;22.50;20.30;;;5.80;35.00;;;;;;6245680;22;20732;-84
2022/03/22 04:16:57;;;;;;;19.60;17.80;;;5.70;35.70;;;;;;6273486;22;20439;-85
2022/03/22 04:19:26;;;;;;;18.87;17.00;;;5.60;35.20;;;;;;6246637;22;20420;-85
2022/03/22 04:21:52;;;;;;;20.63;18.67;;;5.60;35.40;;;;;;6246808;22;20875;-85
2022/03/22 04:24:18;;;;;;;20.67;18.77;;;5.50;35.50;;;;;;6247152;22;20405;-84
2022/03/22 04:26:45;;;;;;;19.03;17.13;;;5.50;34.50;;;;;;6247467;22;20392;-84
2022/03/22 04:34:42;;;;;;;19.67;17.97;;;5.40;33.80;;;;;;6274841;22;20459;-84
2022/03/22 04:37:10;;;;;;;18.70;17.00;;;5.50;34.00;;;;;;6274590;22;20413;-84
2022/03/22 04:39:39;;;;;;;19.47;17.43;;;5.50;34.50;;;;;;6247714;22;20761;-86
2022/03/22 04:42:05;;;;;;;18.83;16.97;;;5.50;34.50;;;;;;6248211;22;20464;-85
2022/03/22 04:44:31;;;;;;;19.73;17.67;;;5.50;35.30;;;;;;6275237;22;20464;-86
2022/03/22 04:46:58;;;;;;;19.77;18.13;;;5.40;35.70;;;;;;6275388;22;20389;-84
2022/03/22 04:49:24;;;;;;;19.07;17.10;;;5.40;37.00;;;;;;6247956;22;20784;-84
2022/03/22 04:57:19;;;;;;;19.70;17.93;;;5.40;35.80;;;;;;6275125;22;20512;-85
2022/03/22 04:59:44;;;;;;;19.00;17.30;;;5.40;35.50;;;;;;6248360;22;20819;-86
2022/03/22 05:02:11;;;;;;;20.47;18.53;;;5.30;35.70;;;;;;6247981;22;20603;-85
2022/03/22 05:04:37;;;;;;;19.37;17.63;;;5.20;35.40;;;;;;6248516;22;20158;-83
2022/03/22 05:07:03;;;;;;;20.63;18.40;;;5.30;35.40;;;;;;6248069;22;20728;-84
2022/03/22 05:09:29;;;;;;;19.80;17.80;;;5.20;35.20;;;;;;6248593;22;20394;-85
2022/03/22 05:12:00;;;;;;;20.97;18.87;;;5.20;34.90;;;;;;6248412;22;20393;-85
2022/03/22 05:14:26;;;;;;;20.00;18.20;;;5.20;35.40;;;;;;6274654;22;20404;-85
2022/03/22 05:16:58;;;;;;;17.90;16.27;;;5.30;35.50;;;;;;6246883;22;20433;-85
2022/03/22 05:19:27;;;;;;;21.43;19.53;;;5.30;35.30;;;;;;6274258;22;20373;-85
2022/03/22 05:22:01;;;;;;;21.50;19.60;;;5.30;35.40;;;;;;6247950;22;20409;-85
2022/03/22 05:24:30;;;;;;;20.60;18.70;;;5.30;35.10;;;;;;6248409;22;20766;-86
2022/03/22 05:26:55;;;;;;;21.27;19.27;;;5.10;35.40;;;;;;6275582;22;20567;-88
2022/03/22 05:29:21;;;;;;;19.20;17.30;;;5.20;36.30;;;;;;6249167;22;20389;-90
2022/03/22 05:31:47;;;;;;;20.23;18.20;;;5.20;35.90;;;;;;6249638;22;20610;-90
2022/03/22 05:34:13;;;;;;;20.37;18.50;;;5.30;36.50;;;;;;6248693;22;20448;-84
2022/03/22 05:36:39;;;;;;;20.37;18.10;;;5.40;35.40;;;;;;6248083;22;20433;-84
2022/03/22 05:39:10;;;;;;;20.03;18.30;;;5.30;35.40;;;;;;6275356;22;20147;-85
2022/03/22 05:41:36;;;;;;;19.17;17.23;;;5.30;35.50;;;;;;6248109;22;20143;-85
2022/03/22 05:44:05;;;;;;;19.17;17.53;;;5.20;34.40;;;;;;6247558;22;20385;-84
2022/03/22 05:46:31;;;;;;;37.33;19.80;;;5.30;35.20;;;;;;6247872;22;20919;-84
2022/03/22 05:48:57;;;;;;;19.30;17.50;;;5.10;34.40;;;;;;6247884;22;20903;-84
2022/03/22 05:51:26;;;;;;;18.80;17.10;;;5.20;35.20;;;;;;6247774;22;20462;-84
2022/03/22 05:53:52;;;;;;;20.97;19.13;;;5.20;34.20;;;;;;6247217;22;20886;-85
2022/03/22 05:56:18;;;;;;;19.50;17.60;;;5.20;35.00;;;;;;6275179;22;20381;-83
2022/03/22 05:58:44;;;;;;;16.70;14.90;;;5.00;35.00;;;;;;6247617;22;20435;-84
2022/03/22 06:01:10;;;;;;;18.77;17.07;;;5.10;35.00;;;;;;6271923;22;20848;-85
2022/03/22 06:03:36;;;;;;;20.10;18.20;;;5.10;34.60;;;;;;6247249;22;20392;-86
2022/03/22 06:06:01;;;;;;;19.53;17.43;;;5.20;35.30;;;;;;6247302;22;20385;-86
2022/03/22 06:08:29;;;;;;;20.10;18.30;;;5.20;35.10;;;;;;6247843;22;20209;-86
2022/03/22 06:10:56;;;;;;;19.63;17.60;;;5.20;35.30;;;;;;6247907;22;20405;-84
2022/03/22 06:13:21;;;;;;;18.20;16.60;;;5.30;35.40;;;;;;6246944;22;20389;-85
2022/03/22 06:15:47;;;;;;;19.30;17.60;;;5.30;35.40;;;;;;6247761;22;20405;-84
2022/03/22 06:18:13;;;;;;;19.93;18.20;;;5.20;34.80;;;;;;6247246;22;20243;-87
2022/03/22 06:20:41;;;;;;;20.20;18.40;;;5.20;34.70;;;;;;6247490;22;20155;-86
2022/03/22 06:23:10;;;;;;;19.70;18.00;;;5.30;35.10;;;;;;6274917;22;20580;-92
2022/03/22 06:25:36;;;;;;;19.97;18.17;;;5.40;34.90;;;;;;6249116;22;20466;-83
2022/03/22 06:28:04;;;;;;;20.57;18.57;;;5.30;34.40;;;;;;6247180;22;20412;-84
2022/03/22 06:30:30;;;;;;;20.03;18.07;;;5.30;35.50;;;;;;6247653;22;20399;-84
2022/03/22 06:32:58;;;;;;;20.07;18.17;;;5.40;35.10;;;;;;6247904;22;20792;-84
2022/03/22 06:35:26;;;;;;;18.10;16.50;;;5.50;35.00;;;;;;6246972;22;20484;-84
2022/03/22 06:37:52;;;;;;;21.40;19.20;;;5.50;34.60;;;;;;6247640;22;20424;-84
2022/03/22 06:40:23;;;;;;;19.37;17.57;;;5.50;34.50;;;;;;6246416;22;20386;-84
2022/03/22 06:42:49;;;;;;;20.77;18.50;;;5.50;34.80;;;;;;6246893;22;20382;-84
2022/03/22 06:45:20;;;;;;;19.73;17.83;;;5.60;33.50;;;;;;6247438;22;20378;-86
2022/03/22 06:47:49;;;;;;;20.27;18.07;;;5.70;33.00;;;;;;6247639;22;20178;-86
2022/03/22 06:50:16;;;;;;;18.37;16.80;;;5.80;33.20;;;;;;6247331;22;20745;-85
2022/03/22 06:52:45;;;;;;;18.87;17.17;;;5.70;33.60;;;;;;6247029;22;20424;-85
2022/03/22 06:55:13;;;;;;;22.73;20.40;;;5.80;34.40;;;;;;6274402;22;20473;-86
2022/03/22 06:57:39;;;;;;;18.80;16.80;;;5.80;33.10;;;;;;6246981;22;20766;-85
2022/03/22 07:00:14;;;;;;;23.33;17.70;;;5.80;33.70;;;;;;6247857;22;20842;-85
2022/03/22 07:02:39;;;;;;;21.70;19.60;;;6.10;32.70;;;;;;6247351;22;20385;-85
2022/03/22 07:05:06;;;;;;;22.23;20.13;;;6.10;33.00;;;;;;6247319;22;20444;-86
2022/03/22 07:07:32;;;;;;;21.77;19.67;;;6.00;32.40;;;;;;6246941;22;20535;-85
2022/03/22 07:09:58;;;;;;;20.17;18.37;;;6.00;31.40;;;;;;6247608;22;20397;-85
2022/03/22 07:12:24;;;;;;;18.77;17.17;;;6.00;33.30;;;;;;6247913;22;20155;-84
2022/03/22 07:14:53;;;;;;;21.37;19.23;;;6.10;32.70;;;;;;6249374;22;20581;-84
2022/03/22 07:17:50;;;;;;;20.57;18.37;;;6.10;30.90;;;;;;6276510;22;20472;-84
2022/03/22 07:21:16;;;;;;;20.43;18.30;;;6.10;31.70;;;;;;6249175;22;20389;-84
2022/03/22 07:23:53;;;;;;;21.67;19.63;;;6.20;32.00;;;;;;6271643;22;20407;-84
2022/03/22 07:26:34;;;;;;;24.70;21.47;;;6.30;32.10;;;;;;6244650;22;20392;-85
2022/03/22 07:29:42;;;;;;;23.77;21.27;;;6.40;31.20;;;;;;6243648;23;20382;-84
2022/03/22 07:32:30;;;;;;;19.67;17.83;;;6.40;32.20;;;;;;6247220;22;20385;-85
2022/03/22 07:35:14;;;;;;;22.40;18.83;;;6.40;31.90;;;;;;6255658;22;20722;-85
2022/03/22 07:38:03;;;;;;;21.20;19.17;;;6.50;32.60;;;;;;6248237;22;20761;-85
2022/03/22 07:41:27;;;;;;;21.60;19.53;;;6.40;30.90;;;;;;6190445;22;20905;-84
2022/03/22 07:44:32;;;;;;;23.17;20.87;;;6.50;31.80;;;;;;6249439;22;20387;-85
2022/03/22 07:54:03;;;;;;;23.10;19.37;;;6.70;30.80;;;;;;6272062;22;20437;-85
2022/03/22 07:56:59;;;;;;;21.37;18.93;;;6.70;30.80;;;;;;6248665;22;20433;-85
2022/03/22 07:59:51;;;;;;;22.97;18.27;;;6.90;30.90;;;;;;6238417;22;20392;-85
2022/03/22 08:02:55;;;;;;;23.40;19.40;;;6.90;30.50;;;;;;6249726;22;20377;-82
2022/03/22 08:06:00;;;;;;;15.50;13.30;;;7.00;30.80;;;;;;6249471;22;20858;-82
2022/03/22 08:08:59;;;;;;;;;;;;;;;;;;;;;
2022/03/22 08:15:10;;;;;;;19.73;14.80;;;7.30;30.10;;;;;;6260122;22;20405;-82
2022/03/22 08:17:39;;;;;;;13.50;12.20;;;7.40;29.80;;;;;;6248405;22;20463;-85
2022/03/22 08:20:07;;;;;;;18.53;15.07;;;7.50;29.60;;;;;;6249043;22;20476;-85
2022/03/22 08:22:50;;;;;;;19.93;13.27;;;7.50;29.40;;;;;;6249226;22;20391;-86
2022/03/22 08:25:18;;;;;;;13.37;11.87;;;7.60;29.40;;;;;;6248631;22;20495;-85
2022/03/22 08:28:02;;;;;;;22.97;20.57;;;7.70;29.30;;;;;;6249190;22;20738;-86
2022/03/22 08:31:00;;;;;;;18.27;12.97;;;7.70;29.50;;;;;;6248026;22;20693;-86
2022/03/22 08:33:29;;;;;;;15.30;13.40;;;7.80;29.60;;;;;;6240015;22;20416;-84
2022/03/22 08:35:55;;;;;;;20.77;13.30;;;7.90;29.80;;;;;;6248867;22;20392;-85
2022/03/22 08:38:57;;;;;;;18.93;13.53;;;8.10;28.90;;;;;;6248672;22;20918;-84
2022/03/22 08:41:41;;;;;;;15.10;13.50;;;8.10;28.10;;;;;;6237755;22;20381;-85
2022/03/22 08:44:34;;;;;;;15.10;12.60;;;8.20;27.90;;;;;;6248344;22;20393;-85
2022/03/22 08:50:55;;;;;;;18.73;12.90;;;8.20;27.50;;;;;;6273925;22;20472;-85
2022/03/22 08:53:37;;;;;;;13.87;12.63;;;8.40;27.20;;;;;;6249051;22;20385;-85
2022/03/22 08:56:13;;;;;;;23.90;13.13;;;8.40;27.30;;;;;;6247239;22;20770;-84
2022/03/22 08:58:57;;;;;;;15.07;12.50;;;8.50;27.80;;;;;;6275620;22;20415;-84
2022/03/22 09:02:41;;;;;;;;;;;;;;;;;;;;;
2022/03/22 09:07:56;;;;;;;21.77;14.40;;;8.80;27.20;;;;;;6269675;22;20385;-85
2022/03/22 09:11:00;;;;;;;16.57;13.90;;;8.90;27.40;;;;;;6248386;22;20384;-85
2022/03/22 09:13:29;;;;;;;17.13;13.70;;;8.90;26.80;;;;;;6252479;22;20483;-85
2022/03/22 09:19:06;;;;;;;17.40;15.53;;;9.10;25.90;;;;;;6253901;22;20854;-85
2022/03/22 09:21:46;;;;;;;15.87;14.30;;;9.20;26.10;;;;;;6248695;22;20471;-85
2022/03/22 09:24:30;;;;;;;17.97;14.37;;;9.30;26.70;;;;;;6248278;22;20396;-85
2022/03/22 09:27:17;;;;;;;19.07;13.20;;;9.40;25.90;;;;;;6248538;22;20413;-84
2022/03/22 09:33:01;;;;;;;18.83;14.43;;;9.50;26.90;;;;;;6239073;22;20717;-85
2022/03/22 09:35:32;;;;;;;26.50;14.40;;;9.70;27.00;;;;;;6248301;22;20381;-84
2022/03/22 09:38:02;;;;;;;16.77;15.00;;;9.70;24.70;;;;;;6274980;22;20421;-85
2022/03/22 09:40:28;;;;;;;17.87;15.97;;;9.90;25.70;;;;;;6247801;22;20847;-84
2022/03/22 09:43:06;;;;;;;15.83;13.40;;;10.00;25.50;;;;;;6248424;22;20377;-84
2022/03/22 09:49:48;;;;;;;20.40;14.23;;;10.20;25.40;;;;;;6134705;22;20382;-84
2022/03/22 09:53:00;;;;;;;18.30;15.80;;;10.40;25.00;;;;;;6225073;22;20664;-84
2022/03/22 09:55:10;;;;;;;20.43;15.27;;;10.50;24.40;;;;;;6259416;22;20699;-84
2022/03/22 09:57:36;;;;;;;16.67;14.90;;;10.60;24.00;;;;;;6223502;22;20433;-84
2022/03/22 10:00:04;;;;;;;29.90;17.67;;;10.70;24.70;;;;;;6248737;22;20386;-84
2022/03/22 10:02:38;;;;;;;23.30;21.03;;;10.80;25.00;;;;;;6247883;22;20390;-84
2022/03/22 10:05:05;;;;;;;16.60;13.57;;;10.80;24.90;;;;;;6275055;22;20462;-84
2022/03/22 10:07:34;;;;;;;23.77;21.50;;;10.90;24.50;;;;;;6247907;22;20396;-84
2022/03/22 10:10:16;;;;;;;23.77;21.27;;;11.00;24.10;;;;;;6247883;22;20389;-84
2022/03/22 10:13:17;;;;;;;18.07;16.13;;;11.00;23.90;;;;;;6247676;22;20389;-84
2022/03/22 10:15:42;;;;;;;18.37;15.60;;;11.10;23.90;;;;;;6126693;23;20395;-85
2022/03/22 10:18:10;;;;;;;28.00;21.60;;;11.20;23.90;;;;;;6222343;22;20441;-84
2022/03/22 10:20:38;;;;;;;20.53;15.23;;;11.40;22.00;;;;;;6248049;22;20159;-84
2022/03/22 10:23:06;;;;;;;16.03;14.07;;;11.60;22.30;;;;;;6247692;22;20468;-86
2022/03/22 10:25:33;;;;;;;17.37;13.90;;;11.70;21.10;;;;;;6247703;22;20475;-86
2022/03/22 10:28:01;;;;;;;18.60;14.00;;;11.80;21.00;;;;;;6275066;22;20373;-85
2022/03/22 10:30:34;;;;;;;14.23;12.83;;;12.00;20.70;;;;;;6247898;22;20385;-87
2022/03/22 10:33:00;;;;;;;16.93;15.13;;;12.00;20.40;;;;;;6274789;22;20723;-85
2022/03/22 10:35:31;;;;;;;13.77;11.73;;;12.10;19.50;;;;;;6247257;22;20850;-84
2022/03/22 10:37:56;;;;;;;16.30;12.67;;;12.20;18.60;;;;;;6247262;22;20439;-86
2022/03/22 10:40:30;;;;;;;15.63;11.70;;;12.30;20.30;;;;;;6247330;22;20389;-86
2022/03/22 10:43:19;;;;;;;14.57;13.07;;;12.40;17.40;;;;;;6246450;22;20167;-84
2022/03/22 10:45:54;;;;;;;14.67;11.97;;;12.40;18.20;;;;;;6270010;22;20393;-86
2022/03/22 10:48:27;;;;;;;13.70;11.37;;;12.30;18.30;;;;;;6248498;22;20381;-86
2022/03/22 10:50:58;;;;;;;15.57;12.67;;;12.30;18.50;;;;;;6249717;22;20401;-82
2022/03/22 10:53:28;;;;;;;15.00;12.90;;;12.40;18.40;;;;;;6249311;22;20377;-82
2022/03/22 10:55:58;;;;;;;24.43;18.67;;;12.40;16.90;;;;;;6249538;22;20422;-80
2022/03/22 10:58:25;;;;;;;16.87;13.60;;;12.50;18.30;;;;;;6248595;22;20429;-82
2022/03/22 11:00:56;;;;;;;22.00;19.77;;;12.50;18.80;;;;;;6249181;22;20387;-82
2022/03/22 11:03:24;;;;;;;22.50;19.00;;;12.60;19.00;;;;;;6249748;22;20461;-81
2022/03/22 11:05:55;;;;;;;18.57;14.87;;;12.60;19.20;;;;;;6276573;22;20381;-81
2022/03/22 11:08:25;;;;;;;16.20;14.60;;;12.70;17.90;;;;;;6249406;22;20699;-81
2022/03/22 11:10:53;;;;;;;23.43;15.77;;;12.80;17.70;;;;;;6249520;22;20464;-81
2022/03/22 11:13:19;;;;;;;17.43;14.57;;;12.80;18.10;;;;;;6249403;22;20447;-81
2022/03/22 11:15:46;;;;;;;18.00;15.90;;;12.80;17.80;;;;;;6249095;22;20390;-81
2022/03/22 11:18:18;;;;;;;15.60;13.00;;;12.90;18.30;;;;;;6249196;22;20275;-81
2022/03/22 11:21:00;;;;;;;17.47;15.57;;;12.90;17.70;;;;;;6249500;22;20381;-81
2022/03/22 11:23:28;;;;;;;17.60;13.20;;;13.00;17.70;;;;;;6249082;22;20381;-81
2022/03/22 11:25:56;;;;;;;16.83;15.03;;;13.10;18.00;;;;;;6249323;22;20447;-81
2022/03/22 11:28:23;;;;;;;14.17;12.70;;;13.10;18.10;;;;;;6232227;22;20385;-81
2022/03/22 11:30:51;;;;;;;18.17;16.00;;;13.20;18.40;;;;;;6249263;22;20756;-81
2022/03/22 11:37:00;;;;;;;18.40;14.37;;;13.20;17.90;;;;;;6276828;22;20419;-83
2022/03/22 11:46:11;;;;;;;15.47;13.87;;;13.30;17.20;;;;;;6183057;23;21176;-82
2022/03/22 11:48:48;;;;;;;17.37;14.07;;;13.30;17.50;;;;;;6192100;23;20472;-81
2022/03/22 11:51:56;;;;;;;18.10;14.33;;;13.40;16.20;;;;;;6220515;23;20365;-81
2022/03/22 11:54:39;;;;;;;19.80;17.90;;;13.60;17.30;;;;;;6219720;23;20393;-82
2022/03/22 11:57:17;;;;;;;16.57;14.90;;;13.50;17.10;;;;;;6219342;23;20421;-81
2022/03/22 12:02:39;;;;;;;15.07;13.37;;;13.70;16.70;;;;;;6189502;23;20386;-81
2022/03/22 12:05:05;;;;;;;15.27;13.50;;;13.90;15.90;;;;;;6219474;23;20382;-81
2022/03/22 12:07:34;;;;;;;16.20;13.80;;;13.90;16.30;;;;;;6219228;23;20382;-81
2022/03/22 12:10:07;;;;;;;17.63;14.20;;;13.90;16.80;;;;;;6219394;23;20394;-81
2022/03/22 12:12:38;;;;;;;15.70;13.00;;;14.00;15.70;;;;;;6218821;23;20888;-85
2022/03/22 12:15:16;;;;;;;15.80;14.10;;;14.00;15.80;;;;;;6245238;23;20379;-85
2022/03/22 12:18:02;;;;;;;17.70;14.60;;;14.00;14.80;;;;;;6218338;23;20422;-85
2022/03/22 12:20:28;;;;;;;20.60;13.83;;;14.00;15.10;;;;;;6218619;23;20393;-86
2022/03/22 12:22:59;;;;;;;15.27;13.67;;;14.10;15.50;;;;;;6218691;23;20390;-85
2022/03/22 12:25:35;;;;;;;15.70;13.37;;;14.10;15.70;;;;;;6219181;23;20232;-85
2022/03/22 12:28:08;;;;;;;20.33;13.43;;;14.10;15.00;;;;;;6219024;23;20754;-85
2022/03/22 12:30:36;;;;;;;15.23;12.50;;;14.20;14.70;;;;;;6219230;23;20387;-85
2022/03/22 12:33:08;;;;;;;17.43;13.63;;;14.20;15.20;;;;;;6218799;23;20813;-86
2022/03/22 12:35:34;;;;;;;17.07;15.37;;;14.30;14.30;;;;;;6218485;23;20382;-86
2022/03/22 12:38:00;;;;;;;14.67;12.93;;;14.20;15.30;;;;;;6218275;23;20491;-86
2022/03/22 12:40:27;;;;;;;16.67;13.20;;;14.30;14.40;;;;;;6218222;23;20378;-86
2022/03/22 12:42:57;;;;;;;16.00;14.07;;;14.30;13.90;;;;;;6218438;23;20385;-86
2022/03/22 12:45:27;;;;;;;16.73;15.03;;;14.40;13.80;;;;;;6218245;23;20691;-86
2022/03/22 12:47:56;;;;;;;15.97;14.33;;;14.40;14.90;;;;;;6218391;23;20445;-85
2022/03/22 12:50:27;;;;;;;19.40;16.27;;;14.40;14.00;;;;;;6218324;23;20386;-85
2022/03/22 12:52:53;;;;;;;17.87;16.03;;;14.50;14.10;;;;;;6217596;23;20694;-86
2022/03/22 12:55:23;;;;;;;17.50;15.20;;;14.60;14.50;;;;;;6218004;23;20388;-86
2022/03/22 12:57:51;;;;;;;16.90;15.20;;;14.60;14.30;;;;;;6217630;23;20513;-86
2022/03/22 13:00:34;;;;;;;15.87;14.20;;;14.60;15.10;;;;;;6217840;23;20473;-86
2022/03/22 13:03:16;;;;;;;19.20;15.10;;;14.70;14.30;;;;;;6218415;23;20481;-86
2022/03/22 13:05:50;;;;;;;17.93;15.27;;;14.70;14.30;;;;;;6218175;23;20373;-86
2022/03/22 13:11:26;;;;;;;15.60;14.10;;;14.70;13.90;;;;;;6217946;23;20385;-86
2022/03/22 13:11:29;;;;;;;18.20;14.77;;;14.80;14.70;;;;;;6244761;23;20365;-86
2022/03/22 13:16:58;;;;;;;24.33;15.83;;;14.90;13.90;;;;;;6244835;23;20425;-86
2022/03/22 13:19:29;;;;;;;16.30;14.00;;;15.00;14.60;;;;;;6245031;23;20505;-86
2022/03/22 13:21:55;;;;;;;17.37;15.67;;;14.90;14.20;;;;;;6217937;23;20892;-89
2022/03/22 13:24:23;;;;;;;17.47;15.57;;;14.90;13.40;;;;;;6217728;23;20726;-82
2022/03/22 13:27:02;;;;;;;18.13;16.23;;;14.90;14.50;;;;;;6217867;23;20382;-82
2022/03/22 13:29:54;;;;;;;16.83;13.23;;;14.90;13.70;;;;;;6216695;23;20959;-82
2022/03/22 13:32:30;;;;;;;17.93;14.37;;;15.00;13.50;;;;;;6212334;23;20397;-82
2022/03/22 13:35:02;;;;;;;18.23;16.30;;;15.10;13.90;;;;;;6217447;23;20440;-82
2022/03/22 13:37:29;;;;;;;17.13;15.33;;;15.10;13.20;;;;;;6217594;23;20652;-82
2022/03/22 13:40:19;;;;;;;19.37;16.50;;;15.20;12.00;;;;;;6217473;23;20409;-84
2022/03/22 13:47:03;;;;;;;15.83;14.30;;;15.30;13.10;;;;;;6180325;23;20391;-90
2022/03/22 13:49:36;;;;;;;16.70;14.07;;;15.50;13.30;;;;;;6156153;23;20897;-90
2022/03/22 13:52:25;;;;;;;14.53;13.00;;;15.60;13.30;;;;;;6155571;23;20403;-90
2022/03/22 13:54:54;;;;;;;16.37;14.60;;;15.70;12.30;;;;;;6156004;23;20427;-91
2022/03/22 13:57:24;;;;;;;20.57;14.77;;;15.90;12.30;;;;;;6199258;23;20426;-91
2022/03/22 14:00:14;;;;;;;16.90;12.50;;;15.90;12.50;;;;;;6216440;23;20950;-91
2022/03/22 14:03:03;;;;;;;18.73;14.93;;;16.00;11.40;;;;;;6216314;23;20443;-91
2022/03/22 14:05:59;;;;;;;17.00;14.93;;;16.00;12.20;;;;;;6215029;23;20417;-91
2022/03/22 14:09:07;;;;;;;;;;;;;;;;;;;;;
2022/03/22 14:11:33;;;;;;;21.80;13.80;;;16.10;12.10;;;;;;6239221;23;20469;-91